Latest Weather Observations for Hay Airport

IDN60801

Issued at 4:32 pm EDT Wednesday 18 January 2017 (issued every 30 minutes, with the page automatically refreshed every 10 minutes)

About weather observations | Map of weather stations | Latest weather observations for NSW | Other Formats
Station Details ID: 075019 Name: HAY AIRPORT AWS Lat: -34.54 Lon: 144.83 Height: 92.0 m
Data from the previous 72 hours. | See also: Recent months at Hay Airport
Date/Time
EDT
Temp
°C
App
Temp
°C
Dew
Point
°C
Rel
Hum
%
Delta-T
°C
Wind Press
QNH
hPa
Press
MSL
hPa
Rain since
9am
mm
Dir  Spd
km/h
Gust
km/h
Spd
kts
Gust
kts
18/04:30pm 34.7 28.6 9.9 22 14.4 SSW 32 43 17 23 1009.1 1008.7 0.0
18/04:00pm 35.5 30.9 9.8 21 14.9 SW 24 35 13 19 1009.2 1008.8 0.0
18/03:30pm 35.4 31.0 10.4 22 14.6 SW 24 35 13 19 1009.3 1008.9 0.0
18/03:00pm 34.8 31.0 9.9 22 14.4 SW 20 30 11 16 1009.6 1009.2 0.0
18/02:30pm 34.4 30.7 11.5 25 13.6 S 22 35 12 19 1010.2 1009.8 0.0
18/02:00pm 33.9 28.7 11.7 26 13.2 SSW 30 43 16 23 1010.7 1010.3 0.0
18/01:30pm 34.1 29.4 11.9 26 13.2 SSW 28 41 15 22 1011.1 1010.7 0.0
18/01:00pm 33.3 28.7 11.2 26 13.0 SW 26 35 14 19 1011.3 1010.8 0.0
18/12:30pm 33.0 28.2 11.5 27 12.7 SSW 28 44 15 24 1011.4 1010.9 0.0
18/12:00pm 33.0 28.7 12.1 28 12.4 SSW 26 35 14 19 1011.3 1010.8 0.0
18/11:30am 31.4 27.2 11.2 29 11.8 SSW 24 37 13 20 1010.9 1010.5 0.0
18/11:00am 30.8 27.2 11.7 31 11.2 SSW 22 35 12 19 1011.0 1010.6 0.0
18/10:30am 30.3 26.3 11.8 32 10.8 S 24 35 13 19 1010.7 1010.3 0.0
18/10:00am 30.0 25.9 11.5 32 10.8 S 24 33 13 18 1010.4 1010.0 0.0
18/09:30am 29.6 25.9 11.6 33 10.5 S 22 30 12 16 1010.3 1009.9 0.0
18/09:00am 28.9 25.2 11.5 34 10.1 S 22 30 12 16 1009.7 1009.3 0.0
18/08:30am 26.1 22.6 10.3 37 8.8 S 19 24 10 13 1009.4 1009.0 0.0
18/08:00am 24.8 21.1 10.3 40 8.1 S 20 30 11 16 1009.0 1008.6 0.0
18/07:30am 22.9 19.8 10.3 45 6.9 SSW 17 26 9 14 1008.9 1008.5 0.0
18/07:00am 21.1 19.1 10.0 49 6.0 SSE 11 15 6 8 1007.9 1007.5 0.0
18/06:30am 21.3 18.5 9.9 48 6.2 S 15 20 8 11 1008.1 1007.7 0.0
18/06:00am 22.5 18.4 10.0 45 6.8 S 22 32 12 17 1007.7 1007.3 0.0
18/05:30am 22.8 18.3 9.9 44 7.0 S 24 33 13 18 1007.1 1006.6 0.0
18/05:00am 21.5 18.0 8.7 44 6.8 S 17 22 9 12 1006.6 1006.1 0.0
18/04:30am 23.5 20.7 8.4 38 8.1 SSE 13 17 7 9 1005.9 1005.4 0.0
18/04:00am 24.9 19.6 8.4 35 8.9 S 26 35 14 19 1006.2 1005.7 0.0
18/03:30am 25.4 19.8 5.6 28 10.2 SSW 24 33 13 18 1006.5 1006.0 0.0
18/03:00am 24.8 20.3 4.0 26 10.4 SSW 17 26 9 14 1006.3 1005.8 0.0
18/02:30am 24.4 20.1 1.3 22 10.9 SSW 13 15 7 8 1006.2 1005.7 0.0
18/02:00am 27.1 22.5 1.5 19 12.4 SSW 15 19 8 10 1006.2 1005.7 0.0
18/01:30am 29.3 23.0 -0.9 14 14.2 SSW 22 30 12 16 1006.1 1005.6 0.0
18/01:00am 29.7 22.7 -0.6 14 14.4 WSW 26 39 14 21 1005.8 1005.3 0.0
18/12:55am 29.6 23.9 -0.7 14 14.3 W 19 39 10 21 1005.8 1005.3 0.0
18/12:30am 27.5 23.9 0.3 17 12.9 W 9 11 5 6 1005.4 1004.9 0.0
18/12:00am 28.5 24.1 0.3 16 13.5 W 13 15 7 8 1005.7 1005.2 0.0
 
Date/Time
EDT
Temp
°C
App
Temp
°C
Dew
Point
°C
Rel
Hum
%
Delta-T
°C
Wind Press
QNH
hPa
Press
MSL
hPa
Rain since
9am
mm
Dir  Spd
km/h
Gust
km/h
Spd
kts
Gust
kts
17/11:30pm 29.8 25.4 0.4 15 14.2 W 13 15 7 8 1005.9 1005.4 0.0
17/11:00pm 30.4 26.2 1.8 16 14.2 W 13 15 7 8 1006.0 1005.5 0.0
17/10:30pm 31.9 27.6 3.0 16 14.8 W 15 19 8 10 1006.0 1005.5 0.0
17/10:00pm 30.9 26.3 3.8 18 14.0 WNW 17 20 9 11 1005.7 1005.2 0.0
17/09:30pm 31.9 29.2 3.8 17 14.5 NW 7 11 4 6 1005.1 1004.6 0.0
17/09:00pm 34.0 30.6 1.7 13 16.4 W 9 11 5 6 1004.8 1004.3 0.0
17/08:30pm 37.1 33.5 0.4 10 18.5 W 9 11 5 6 1004.5 1004.0 0.0
17/08:00pm 40.3 35.8 -0.3 8 20.8 WSW 13 20 7 11 1004.3 1003.8 0.0
17/07:30pm 41.6 36.1 0.7 8 21.3 WSW 19 24 10 13 1004.1 1003.6 0.0
17/07:00pm 42.2 35.8 1.1 8 21.7 W 24 30 13 16 1004.2 1003.7 0.0
17/06:30pm 42.9 37.9 1.6 8 22.0 WSW 17 26 9 14 1004.1 1003.6 0.0
17/06:00pm 43.3 37.1 1.9 8 22.2 NW 24 37 13 20 1004.2 1003.7 0.0
17/05:30pm 43.0 38.8 1.7 8 22.0 NW 13 24 7 13 1004.6 1004.1 0.0
17/05:00pm 43.5 37.7 2.1 8 22.3 W 22 39 12 21 1005.0 1004.5 0.0
17/04:30pm 42.9 37.0 1.6 8 22.0 WNW 22 33 12 18 1005.3 1004.8 0.0
17/04:00pm 43.9 37.7 2.4 8 22.5 W 24 39 13 21 1005.7 1005.2 0.0
17/03:39pm 43.9 37.0 2.4 8 22.4 WNW 28 46 15 25 1005.9 1005.4 0.0
17/03:30pm 42.6 37.0 1.4 8 21.8 WNW 20 32 11 17 1006.0 1005.5 0.0
17/03:00pm 42.6 36.3 1.4 8 21.9 WNW 24 39 13 21 1006.6 1006.1 0.0
17/02:30pm 42.9 36.9 3.3 9 21.6 WNW 24 39 13 21 1006.9 1006.4 0.0
17/02:00pm 43.0 36.0 1.7 8 22.1 WNW 28 39 15 21 1007.3 1006.9 0.0
17/01:30pm 42.6 35.5 1.4 8 21.8 NNW 28 39 15 21 1007.8 1007.4 0.0
17/01:19pm 42.7 37.4 3.1 9 21.5 NNW 20 39 11 21 1007.8 1007.4 0.0
17/01:00pm 42.1 37.2 4.2 10 20.9 NW 19 37 10 20 1008.0 1007.6 0.0
17/12:38pm 41.6 36.1 3.8 10 20.6 WNW 22 44 12 24 1008.4 1008.0 0.0
17/12:30pm 40.7 36.3 4.5 11 19.9 NNW 17 32 9 17 1008.6 1008.2 0.0
17/12:00pm 40.7 37.3 5.7 12 19.6 W 13 24 7 13 1009.0 1008.6 0.0
17/11:30am 40.1 35.9 4.0 11 19.6 NW 15 20 8 11 1009.4 1009.0 0.0
17/11:00am 39.4 36.3 8.9 16 17.8 NW 15 26 8 14 1009.7 1009.3 0.0
17/10:30am 37.4 34.1 8.2 17 16.7 NNW 15 24 8 13 1010.0 1009.6 0.0
17/10:00am 35.4 32.7 7.5 18 15.6 N 11 17 6 9 1010.3 1009.9 0.0
17/09:30am 32.9 31.3 6.2 19 14.5 NNE 4 11 2 6 1010.4 1010.0 0.0
17/09:00am 31.8 30.7 5.3 19 14.1 CALM 0 6 0 3 1010.6 1010.2 0.0
17/08:30am 29.5 27.2 4.9 21 12.8 NE 6 9 3 5 1010.6 1010.2 0.0
17/08:00am 27.5 25.3 5.1 24 11.6 ESE 6 9 3 5 1010.4 1010.0 0.0
17/07:30am 24.0 21.3 5.8 31 9.3 E 9 13 5 7 1010.3 1009.9 0.0
17/07:00am 20.6 17.8 5.0 36 7.7 ESE 9 11 5 6 1010.2 1009.8 0.0
17/06:30am 20.5 17.5 4.1 34 7.9 E 9 11 5 6 1010.0 1009.6 0.0
17/06:00am 19.6 16.2 4.1 36 7.4 E 11 13 6 7 1009.8 1009.4 0.0
17/05:30am 19.2 15.8 3.8 36 7.3 E 11 15 6 8 1009.8 1009.4 0.0
17/05:00am 21.3 17.2 4.4 33 8.3 ENE 15 17 8 9 1009.4 1009.0 0.0
17/04:30am 18.4 15.1 6.6 46 5.9 ENE 13 17 7 9 1009.4 1009.0 0.0
17/04:00am 17.6 15.0 5.9 46 5.7 ESE 9 15 5 8 1009.4 1009.0 0.0
17/03:30am 16.4 13.8 6.0 50 5.1 ESE 9 13 5 7 1009.7 1009.3 0.0
17/03:00am 16.7 13.9 5.0 46 5.6 ESE 9 11 5 6 1009.8 1009.4 0.0
17/02:30am 16.8 14.3 4.8 45 5.7 SE 7 9 4 5 1010.1 1009.7 0.0
17/02:00am 17.5 15.7 5.4 45 5.9 SE 4 7 2 4 1010.2 1009.8 0.0
17/01:30am 18.5 15.7 3.2 36 7.2 S 7 9 4 5 1010.3 1009.9 0.0
17/01:00am 19.2 16.1 3.4 35 7.5 SSE 9 9 5 5 1010.3 1009.9 0.0
17/12:30am 20.2 17.6 3.4 33 8.0 ESE 6 7 3 4 1010.4 1010.0 0.0
17/12:00am 20.9 18.7 3.6 32 8.3 ENE 4 11 2 6 1010.7 1010.3 0.0
 
Date/Time
EDT
Temp
°C
App
Temp
°C
Dew
Point
°C
Rel
Hum
%
Delta-T
°C
Wind Press
QNH
hPa
Press
MSL
hPa
Rain since
9am
mm
Dir  Spd
km/h
Gust
km/h
Spd
kts
Gust
kts
16/11:30pm 24.2 21.2 1.8 23 10.6 SE 7 11 4 6 1011.0 1010.6 0.0
16/11:00pm 23.5 21.4 1.8 24 10.3 SSW 2 6 1 3 1011.4 1010.9 0.0
16/10:30pm 24.4 20.9 1.3 22 10.9 SSW 9 11 5 6 1011.4 1010.9 0.0
16/10:00pm 23.4 20.8 1.1 23 10.4 SW 4 15 2 8 1011.1 1010.7 0.0
16/09:30pm 27.9 25.8 -1.1 15 13.4 CALM 0 0 0 0 1010.8 1010.4 0.0
16/09:00pm 30.1 27.9 -1.3 13 14.7 CALM 0 0 0 0 1010.6 1010.2 0.0
16/08:30pm 33.2 30.7 -3.9 9 17.0 CALM 0 0 0 0 1010.4 1010.0 0.0
16/08:00pm 36.8 34.2 -4.6 7 19.3 CALM 0 0 0 0 1010.1 1009.7 0.0
16/07:30pm 37.6 34.7 -4.0 7 19.7 WNW 2 9 1 5 1010.0 1009.6 0.0
16/07:00pm 37.9 34.8 -5.8 6 20.2 WSW 2 13 1 7 1009.8 1009.4 0.0
16/06:30pm 38.1 34.7 -5.7 6 20.3 W 4 13 2 7 1009.7 1009.3 0.0
16/06:00pm 37.6 32.8 -6.0 6 20.0 N 11 17 6 9 1009.9 1009.5 0.0
16/05:30pm 38.1 33.5 -8.1 5 20.6 NNE 9 17 5 9 1010.1 1009.7 0.0
16/05:00pm 38.1 34.1 -8.1 5 20.6 WSW 6 15 3 8 1010.2 1009.8 0.0
16/04:30pm 37.4 31.6 -8.5 5 20.2 WNW 15 20 8 11 1010.3 1009.9 0.0
16/04:00pm 37.5 32.7 -6.1 6 20.0 WNW 11 24 6 13 1010.5 1010.1 0.0
16/03:30pm 36.8 32.5 -4.6 7 19.3 NNW 9 20 5 11 1011.0 1010.6 0.0
16/03:00pm 36.2 31.3 -3.3 8 18.7 WNW 13 20 7 11 1011.5 1011.0 0.0
16/02:30pm 35.3 30.9 -2.3 9 18.0 NNE 11 22 6 12 1011.9 1011.4 0.0
16/02:00pm 35.7 30.6 -2.0 9 18.2 NE 15 22 8 12 1012.4 1011.9 0.0
16/01:30pm 35.4 29.7 -3.8 8 18.3 N 17 26 9 14 1012.9 1012.4 0.0
16/01:00pm 33.6 27.7 -5.2 8 17.5 NNW 17 32 9 17 1013.1 1012.6 0.0
16/12:30pm 33.7 30.3 -2.1 10 17.0 E 6 11 3 6 1013.4 1012.9 0.0
16/12:00pm 32.4 29.5 1.5 14 15.4 E 6 11 3 6 1013.7 1013.2 0.0
16/11:30am 32.0 29.0 2.1 15 15.1 SSE 7 17 4 9 1014.1 1013.6 0.0
16/11:00am 30.7 28.0 2.9 17 14.1 WSW 6 11 3 6 1014.4 1013.9 0.0
16/10:30am 29.3 26.3 4.0 20 12.9 S 9 17 5 9 1014.6 1014.1 0.0
16/10:00am 28.6 26.0 6.1 24 11.9 ESE 9 17 5 9 1015.0 1014.5 0.0
16/09:30am 27.3 24.7 7.7 29 10.6 E 11 15 6 8 1015.3 1014.8 0.0
16/09:00am 25.0 21.7 8.1 34 9.0 E 15 19 8 10 1015.5 1015.0 0.0
16/08:30am 23.2 20.5 8.9 40 7.7 E 13 20 7 11 1015.3 1014.8 0.0
16/08:00am 20.4 18.2 9.3 49 5.9 E 11 17 6 9 1015.1 1014.6 0.0
16/07:30am 17.8 15.3 8.4 54 4.8 E 11 15 6 8 1014.8 1014.3 0.0
16/07:00am 14.9 12.3 7.7 62 3.6 E 11 13 6 7 1014.6 1014.1 0.0
16/06:30am 12.1 9.4 5.7 65 3.0 E 9 11 5 6 1014.4 1013.9 0.0
16/06:00am 12.6 10.0 6.0 64 3.1 ESE 9 11 5 6 1014.0 1013.5 0.0
16/05:30am 12.6 10.3 5.5 62 3.3 ESE 7 9 4 5 1014.0 1013.5 0.0
16/05:00am 12.6 9.9 5.5 62 3.3 SE 9 11 5 6 1013.7 1013.2 0.0
16/04:30am 12.6 11.3 5.8 63 3.2 SE 2 7 1 4 1013.4 1012.9 0.0
16/04:00am 12.9 11.4 5.1 59 3.6 SE 2 7 1 4 1013.3 1012.8 0.0
16/03:30am 13.7 10.9 5.3 57 4.0 SSE 9 9 5 5 1013.4 1012.9 0.0
16/03:00am 15.1 14.0 5.0 51 4.8 CALM 0 6 0 3 1013.3 1012.8 0.0
16/02:30am 15.1 13.0 5.6 53 4.5 ESE 6 7 3 4 1013.5 1013.0 0.0
16/02:00am 16.5 14.0 4.5 45 5.7 ESE 7 9 4 5 1013.7 1013.2 0.0
16/01:30am 16.2 13.5 3.9 44 5.7 E 7 11 4 6 1013.7 1013.2 0.0
16/01:00am 16.9 14.2 3.9 42 6.1 ESE 7 9 4 5 1013.9 1013.4 0.0
16/12:30am 18.3 15.6 3.8 38 6.8 SE 7 9 4 5 1013.8 1013.3 0.0
16/12:00am 19.2 16.1 3.8 36 7.3 SSE 9 13 5 7 1014.0 1013.5 0.0
 
Date/Time
EDT
Temp
°C
App
Temp
°C
Dew
Point
°C
Rel
Hum
%
Delta-T
°C
Wind Press
QNH
hPa
Press
MSL
hPa
Rain since
9am
mm
Dir  Spd
km/h
Gust
km/h
Spd
kts
Gust
kts
15/11:30pm 20.3 16.4 3.5 33 8.0 S 13 17 7 9 1014.1 1013.6 0.0
15/11:00pm 19.4 15.9 3.6 35 7.5 S 11 13 6 7 1014.1 1013.6 0.0
15/10:30pm 21.1 17.2 3.3 31 8.5 S 13 15 7 8 1014.1 1013.6 0.0
15/10:00pm 20.6 17.0 2.9 31 8.4 S 11 13 6 7 1014.0 1013.5 0.0
15/09:30pm 23.0 19.3 2.5 26 9.8 S 11 15 6 8 1014.0 1013.5 0.0
15/09:00pm 24.5 20.3 1.4 22 10.9 S 13 17 7 9 1013.8 1013.3 0.0
15/08:30pm 26.5 21.8 1.0 19 12.1 S 15 17 8 9 1013.7 1013.2 0.0
15/08:00pm 29.0 23.8 -0.2 15 13.8 SSW 17 20 9 11 1013.7 1013.2 0.0
15/07:30pm 30.3 24.3 -1.2 13 14.8 SSW 20 26 11 14 1013.4 1012.9 0.0
15/07:00pm 31.1 25.4 0.5 14 14.9 SSW 20 28 11 15 1013.3 1012.8 0.0
15/06:30pm 31.5 25.7 -0.2 13 15.3 SSW 20 30 11 16 1013.3 1012.8 0.0
15/06:00pm 31.5 25.7 -0.2 13 15.3 S 20 32 11 17 1013.4 1012.9 0.0
15/05:30pm 31.9 25.8 -2.2 11 16.0 SW 20 30 11 16 1013.6 1013.1 0.0
15/05:00pm 31.7 26.9 -0.1 13 15.4 SW 15 26 8 14 1013.8 1013.3 0.0

Other Formats:

Comma delimited format used in spreadsheet applications
http://www.bom.gov.au/fwo/IDN60801/IDN60801.94702.axf

JavaScript Object Notation format (JSON) in row-major order
http://www.bom.gov.au/fwo/IDN60801/IDN60801.94702.json